createdAt,value
2022-09-15T00:00:35.477Z,97781.97
2022-09-15T00:03:02.934Z,97778.75
2022-09-15T00:05:30.266Z,97786.22
2022-09-15T00:07:57.447Z,97775.94
2022-09-15T00:10:24.680Z,97783.09
2022-09-15T00:12:51.969Z,97776.88
2022-09-15T00:15:19.547Z,97783.22
2022-09-15T00:17:52.081Z,97752.53
2022-09-15T00:20:20.632Z,97781.59
2022-09-15T00:22:48.452Z,97782.97
2022-09-15T00:25:16.065Z,97780.00
2022-09-15T00:27:43.204Z,97777.25
2022-09-15T00:30:11.097Z,97777.09
2022-09-15T00:32:38.489Z,97771.13
2022-09-15T00:35:08.042Z,97773.09
2022-09-15T00:37:35.207Z,97771.38
2022-09-15T00:40:03.000Z,97768.97
2022-09-15T00:42:30.377Z,97778.09
2022-09-15T00:44:59.236Z,97781.22
2022-09-15T00:47:36.405Z,97777.50
2022-09-15T00:50:07.425Z,97783.53
2022-09-15T00:52:44.306Z,97784.22
2022-09-15T00:55:20.220Z,97782.53
2022-09-15T00:57:52.730Z,97779.28
2022-09-15T01:00:22.717Z,97764.75
2022-09-15T01:02:50.676Z,97777.50
2022-09-15T01:05:21.205Z,97770.09
2022-09-15T01:07:59.287Z,97777.59
2022-09-15T01:10:28.864Z,97771.97
2022-09-15T01:13:00.301Z,97777.44
2022-09-15T01:15:37.788Z,97776.94
2022-09-15T01:18:15.782Z,97777.00
2022-09-15T01:21:05.296Z,97778.19
2022-09-15T01:24:22.931Z,97768.81
2022-09-15T01:27:41.581Z,97760.75
2022-09-15T01:30:13.275Z,97762.75
2022-09-15T01:33:04.972Z,97761.75
2022-09-15T01:35:56.386Z,97758.50
2022-09-15T01:38:33.287Z,97762.88
2022-09-15T01:41:07.413Z,97753.69
2022-09-15T01:43:42.823Z,97776.03
2022-09-15T01:46:14.466Z,97769.13
2022-09-15T01:48:42.513Z,97769.13
2022-09-15T01:51:10.256Z,97771.34
2022-09-15T01:53:37.903Z,97768.78
2022-09-15T01:56:08.659Z,97773.56
2022-09-15T01:58:37.955Z,97775.56
2022-09-15T02:01:10.200Z,97766.28
2022-09-15T02:03:44.802Z,97770.22
2022-09-15T02:06:19.638Z,97764.56
2022-09-15T02:08:52.621Z,97771.25
2022-09-15T02:11:28.154Z,97769.44
2022-09-15T02:14:03.972Z,97771.41
2022-09-15T02:16:35.447Z,97768.28
2022-09-15T02:19:15.643Z,97763.34
2022-09-15T02:21:54.243Z,97769.84
2022-09-15T02:24:27.905Z,97769.44
2022-09-15T02:26:57.833Z,97769.06
2022-09-15T02:29:27.515Z,97755.47
2022-09-15T02:32:03.690Z,97754.69
2022-09-15T02:34:38.825Z,97760.16
2022-09-15T02:37:06.799Z,97761.56
2022-09-15T02:39:37.471Z,97746.22
2022-09-15T02:42:05.028Z,97768.44
2022-09-15T02:44:32.425Z,97760.91
2022-09-15T02:47:02.079Z,97768.44
2022-09-15T02:49:29.645Z,97772.78
2022-09-15T02:51:58.170Z,97775.19
2022-09-15T02:54:25.374Z,97774.66
2022-09-15T02:56:52.544Z,97774.66
2022-09-15T02:59:19.793Z,97778.78
2022-09-15T03:01:47.033Z,97774.22
2022-09-15T03:04:14.384Z,97774.41
2022-09-15T03:06:41.572Z,97770.09
2022-09-15T03:09:10.541Z,97771.75
2022-09-15T03:11:37.758Z,97773.91
2022-09-15T03:14:06.589Z,97761.16
2022-09-15T03:16:35.555Z,97776.88
2022-09-15T03:19:04.029Z,97778.44
2022-09-15T03:21:31.677Z,97774.88
2022-09-15T03:23:59.239Z,97778.03
2022-09-15T03:26:27.850Z,97778.78
2022-09-15T03:28:55.091Z,97776.88
2022-09-15T03:31:22.609Z,97777.78
2022-09-15T03:33:49.882Z,97776.63
2022-09-15T03:36:17.102Z,97779.78
2022-09-15T03:38:44.338Z,97780.19
2022-09-15T03:41:12.769Z,97774.44
2022-09-15T03:43:41.745Z,97778.78
2022-09-15T03:46:11.723Z,97771.69
2022-09-15T03:48:40.632Z,97774.84
2022-09-15T03:51:10.650Z,97779.22
2022-09-15T03:53:40.102Z,97772.91
2022-09-15T03:56:09.046Z,97765.78
2022-09-15T03:58:36.203Z,97773.25
2022-09-15T04:01:05.413Z,97772.81
2022-09-15T04:03:33.461Z,97777.59
2022-09-15T04:06:00.675Z,97774.50
2022-09-15T04:08:28.076Z,97782.81
2022-09-15T04:10:55.383Z,97777.63
2022-09-15T04:13:27.951Z,97776.00
2022-09-15T04:16:01.165Z,97773.44
2022-09-15T04:18:30.355Z,97781.75
2022-09-15T04:20:59.765Z,97771.34
2022-09-15T04:23:27.238Z,97789.47
2022-09-15T04:25:56.089Z,97779.97
2022-09-15T04:28:23.414Z,97777.06
2022-09-15T04:30:50.578Z,97785.72
2022-09-15T04:33:17.935Z,97782.56
2022-09-15T04:35:46.690Z,97773.91
2022-09-15T04:38:13.937Z,97765.03
2022-09-15T04:40:41.086Z,97783.56
2022-09-15T04:43:08.496Z,97783.19
2022-09-15T04:45:35.902Z,97782.56
2022-09-15T04:48:03.227Z,97779.44
2022-09-15T04:50:32.351Z,97762.31
2022-09-15T04:53:03.923Z,97780.59
2022-09-15T04:55:32.356Z,97781.16
2022-09-15T04:57:59.866Z,97785.91
2022-09-15T05:00:27.428Z,97782.75
2022-09-15T05:02:54.875Z,97791.44
2022-09-15T05:05:22.211Z,97794.16
2022-09-15T05:07:49.714Z,97792.81
2022-09-15T05:10:18.636Z,97791.59
2022-09-15T05:12:46.278Z,97781.47
2022-09-15T05:15:13.599Z,97783.09
2022-09-15T05:17:40.982Z,97791.59
2022-09-15T05:20:08.773Z,97785.13
2022-09-15T05:22:40.895Z,97791.06
2022-09-15T05:25:09.572Z,97789.19
2022-09-15T05:27:39.661Z,97785.91
2022-09-15T05:30:35.779Z,97787.69
2022-09-15T05:32:56.358Z,97783.16
2022-09-15T05:35:23.824Z,97787.88
2022-09-15T05:37:50.970Z,97784.03
2022-09-15T05:40:20.844Z,97786.88
2022-09-15T05:42:49.445Z,97789.09
2022-09-15T05:45:16.828Z,97789.47
2022-09-15T05:47:44.252Z,97781.94
2022-09-15T05:50:11.576Z,97786.63
2022-09-15T05:52:38.841Z,97777.38
2022-09-15T05:55:06.471Z,97789.78
2022-09-15T05:57:33.593Z,97791.38
2022-09-15T06:00:02.997Z,97788.91
2022-09-15T06:02:39.253Z,97795.69
2022-09-15T06:05:08.098Z,97793.50
2022-09-15T06:07:35.337Z,97789.34
2022-09-15T06:10:02.773Z,97800.38
2022-09-15T06:12:30.243Z,97792.06
2022-09-15T06:14:57.673Z,97803.28
2022-09-15T06:17:26.550Z,97800.09
2022-09-15T06:19:53.801Z,97798.56
2022-09-15T06:22:21.025Z,97800.34
2022-09-15T06:24:48.455Z,97800.28
2022-09-15T06:27:15.886Z,97800.28
2022-09-15T06:29:43.107Z,97803.28
2022-09-15T06:32:10.353Z,97800.34
2022-09-15T06:34:39.076Z,97798.72
2022-09-15T06:37:06.261Z,97812.97
2022-09-15T06:39:33.499Z,97812.91
2022-09-15T06:42:03.249Z,97819.47
2022-09-15T06:44:32.128Z,97819.47
2022-09-15T06:46:59.437Z,97818.88
2022-09-15T06:49:26.961Z,97817.72
2022-09-15T06:51:56.532Z,97818.88
2022-09-15T06:54:24.060Z,97824.25
2022-09-15T06:56:51.308Z,97816.31
2022-09-15T06:59:18.823Z,97822.06
2022-09-15T07:01:46.239Z,97831.53
2022-09-15T07:04:13.509Z,97825.22
2022-09-15T07:06:40.820Z,97827.53
2022-09-15T07:09:10.994Z,97829.94
2022-09-15T07:11:38.300Z,97835.84
2022-09-15T07:14:05.522Z,97831.34
2022-09-15T07:16:33.076Z,97835.03
2022-09-15T07:19:02.517Z,97823.66
2022-09-15T07:21:29.867Z,97837.16
2022-09-15T07:23:58.196Z,97833.47
2022-09-15T07:26:28.046Z,97841.94
2022-09-15T07:28:59.307Z,97840.72
2022-09-15T07:31:29.751Z,97824.19
2022-09-15T07:33:57.334Z,97841.47
2022-09-15T07:36:24.610Z,97834.97
2022-09-15T07:38:52.043Z,97838.88
2022-09-15T07:41:21.215Z,97836.31
2022-09-15T07:43:51.417Z,97834.75
2022-09-15T07:46:19.403Z,97843.69
2022-09-15T07:48:47.629Z,97844.78
2022-09-15T07:51:15.928Z,97855.09
2022-09-15T07:53:43.691Z,97857.69
2022-09-15T07:56:11.104Z,97854.31
2022-09-15T07:58:38.645Z,97849.22
2022-09-15T08:01:11.308Z,97848.56
2022-09-15T08:03:40.345Z,97855.09
2022-09-15T08:06:08.621Z,97850.94
2022-09-15T08:08:37.508Z,97837.06
2022-09-15T08:11:07.084Z,97851.28
2022-09-15T08:13:34.637Z,97865.28
2022-09-15T08:16:11.633Z,97856.94
2022-09-15T08:18:42.158Z,97853.81
2022-09-15T08:21:11.681Z,97838.03
2022-09-15T08:23:38.905Z,97853.34
2022-09-15T08:26:10.644Z,97840.34
2022-09-15T08:28:40.762Z,97854.31
2022-09-15T08:31:11.680Z,97819.16
2022-09-15T08:33:44.568Z,97847.44
2022-09-15T08:36:12.891Z,97864.47
2022-09-15T08:38:41.712Z,97862.59
2022-09-15T08:41:18.794Z,97859.69
2022-09-15T08:43:51.646Z,97849.03
2022-09-15T08:46:27.170Z,97868.00
2022-09-15T08:49:03.100Z,97862.00
2022-09-15T08:51:37.090Z,97851.03
2022-09-15T08:54:11.372Z,97864.81
2022-09-15T08:56:41.713Z,97869.44
2022-09-15T08:59:13.177Z,97864.09
2022-09-15T09:01:58.281Z,97868.16
2022-09-15T09:04:41.569Z,97851.44
2022-09-15T09:07:24.226Z,97873.03
2022-09-15T09:09:57.398Z,97858.38
2022-09-15T09:12:44.427Z,97873.59
2022-09-15T09:15:24.538Z,97882.06
2022-09-15T09:18:11.086Z,97879.75
2022-09-15T09:20:49.011Z,97877.34
2022-09-15T09:23:20.910Z,97881.38
2022-09-15T09:25:49.953Z,97885.16
2022-09-15T09:28:28.233Z,97898.44
2022-09-15T09:31:00.320Z,97883.03
2022-09-15T09:33:38.601Z,97885.97
2022-09-15T09:36:08.593Z,97892.69
2022-09-15T09:38:38.468Z,97883.59
2022-09-15T09:41:09.300Z,97884.56
2022-09-15T09:43:37.134Z,97891.47
2022-09-15T09:46:11.600Z,97888.63
2022-09-15T09:48:43.544Z,97884.84
2022-09-15T09:51:31.261Z,97878.59
2022-09-15T09:54:04.704Z,97888.88
2022-09-15T09:56:32.021Z,97902.47
2022-09-15T09:58:59.291Z,97903.47
2022-09-15T10:01:26.885Z,97894.34
2022-09-15T10:04:17.165Z,97897.53
2022-09-15T10:06:44.436Z,97902.59
2022-09-15T10:09:17.030Z,97900.63
2022-09-15T10:11:46.815Z,97907.09
2022-09-15T10:14:22.318Z,97904.91
2022-09-15T10:17:08.401Z,97899.00
2022-09-15T10:19:49.615Z,97901.13
2022-09-15T10:22:30.112Z,97907.81
2022-09-15T10:24:59.806Z,97907.22
2022-09-15T10:27:30.535Z,97900.41
2022-09-15T10:30:17.153Z,97897.28
2022-09-15T10:32:44.416Z,97906.00
2022-09-15T10:35:18.271Z,97901.66
2022-09-15T10:37:59.401Z,97905.59
2022-09-15T10:40:34.592Z,97919.13
2022-09-15T10:43:17.062Z,97919.47
2022-09-15T10:45:49.197Z,97912.25
2022-09-15T10:48:28.101Z,97914.91
2022-09-15T10:51:04.116Z,97913.34
2022-09-15T10:53:57.583Z,97915.34
2022-09-15T10:56:29.728Z,97926.47
2022-09-15T10:59:11.804Z,97935.00
2022-09-15T11:02:10.686Z,97936.25
2022-09-15T11:04:52.370Z,97932.78
2022-09-15T11:07:32.021Z,97926.72
2022-09-15T11:10:06.657Z,97932.13
2022-09-15T11:12:49.138Z,97940.75
2022-09-15T11:15:33.628Z,97932.75
2022-09-15T11:18:25.804Z,97932.56
2022-09-15T11:21:11.169Z,97939.31
2022-09-15T11:23:42.554Z,97943.38
2022-09-15T11:26:17.349Z,97948.00
2022-09-15T11:28:49.763Z,97946.84
2022-09-15T11:31:22.113Z,97945.69
2022-09-15T11:33:55.389Z,97933.50
2022-09-15T11:36:32.632Z,97953.94
2022-09-15T11:39:24.041Z,97954.31
2022-09-15T11:41:59.782Z,97960.81
2022-09-15T11:44:32.406Z,97948.38
2022-09-15T11:47:14.289Z,97955.25
2022-09-15T11:49:46.501Z,97954.06
2022-09-15T11:52:39.759Z,97954.22
2022-09-15T11:55:21.939Z,97949.63
2022-09-15T11:57:57.479Z,97951.56
2022-09-15T12:00:24.700Z,97955.44
2022-09-15T12:03:00.475Z,97959.19
2022-09-15T12:05:32.123Z,97941.34
2022-09-15T12:08:05.052Z,97954.09
2022-09-15T12:10:39.871Z,97952.81
2022-09-15T12:13:15.518Z,97912.09
2022-09-15T12:15:43.706Z,97940.53
2022-09-15T12:18:37.741Z,97949.03
2022-09-15T12:21:14.193Z,97943.88
2022-09-15T12:23:45.139Z,97932.53
2022-09-15T12:26:17.553Z,97950.69
2022-09-15T12:28:57.481Z,97948.72
2022-09-15T12:31:29.964Z,97922.94
2022-09-15T12:34:05.709Z,97895.81
2022-09-15T12:36:53.029Z,97952.00
2022-09-15T12:39:25.606Z,97931.94
2022-09-15T12:41:56.546Z,97951.47
2022-09-15T12:44:33.614Z,97950.81
2022-09-15T12:47:04.212Z,97953.78
2022-09-15T12:49:35.225Z,97963.34
2022-09-15T12:52:07.902Z,97955.28
2022-09-15T12:54:39.256Z,97960.69
2022-09-15T12:57:19.210Z,97963.13
2022-09-15T12:59:46.852Z,97960.56
2022-09-15T13:02:44.953Z,97958.84
2022-09-15T13:05:14.493Z,97959.91
2022-09-15T13:07:56.925Z,97953.31
2022-09-15T13:10:34.829Z,97957.78
2022-09-15T13:13:22.939Z,97959.56
2022-09-15T13:15:53.726Z,97955.88
2022-09-15T13:18:22.036Z,97957.81
2022-09-15T13:20:54.909Z,97943.81
2022-09-15T13:23:25.774Z,97951.53
2022-09-15T13:25:56.902Z,97960.84
2022-09-15T13:28:27.132Z,97966.84
2022-09-15T13:31:07.690Z,97972.94
2022-09-15T13:40:13.167Z,97976.16
2022-09-15T13:42:55.072Z,97967.44
2022-09-15T13:45:46.096Z,97975.72
2022-09-15T13:48:33.880Z,97959.56
2022-09-15T13:51:06.174Z,97977.28
2022-09-15T13:53:48.401Z,97982.56
2022-09-15T13:56:22.621Z,97974.34
2022-09-15T13:58:56.554Z,97977.63
2022-09-15T14:01:30.307Z,97970.09
2022-09-15T14:04:02.241Z,97980.41
2022-09-15T14:06:35.704Z,97980.41
2022-09-15T14:09:08.793Z,97984.69
2022-09-15T14:11:37.990Z,97985.03
2022-09-15T14:14:10.499Z,97990.13
2022-09-15T14:16:39.888Z,97989.66
2022-09-15T14:19:30.635Z,97977.31
2022-09-15T14:21:58.829Z,97994.75
2022-09-15T14:24:29.689Z,97991.03
2022-09-15T14:27:00.271Z,97996.59
2022-09-15T14:29:27.881Z,97993.09
2022-09-15T14:32:01.913Z,97980.06
2022-09-15T14:34:32.353Z,98000.97
2022-09-15T14:37:03.448Z,97986.69
2022-09-15T14:39:30.866Z,98000.69
2022-09-15T14:47:28.053Z,97987.53
2022-09-15T14:50:06.805Z,98004.59
2022-09-15T14:52:36.046Z,98000.03
2022-09-15T14:55:08.191Z,98005.19
2022-09-15T14:57:39.620Z,98002.34
2022-09-15T15:00:12.343Z,98000.69
2022-09-15T15:02:56.693Z,98001.50
2022-09-15T15:05:27.546Z,98001.47
2022-09-15T15:07:55.885Z,98005.16
2022-09-15T15:10:25.962Z,97997.66
2022-09-15T15:12:59.257Z,98011.75
2022-09-15T15:15:27.400Z,98009.31
2022-09-15T15:17:56.215Z,98003.69
2022-09-15T15:20:25.714Z,98004.78
2022-09-15T15:23:16.827Z,98002.59
2022-09-15T15:25:44.670Z,98009.00
2022-09-15T15:28:30.779Z,98003.50
2022-09-15T15:31:13.673Z,97980.75
2022-09-15T15:33:48.768Z,98007.56
2022-09-15T15:36:21.983Z,98001.84
2022-09-15T15:38:52.455Z,97997.56
2022-09-15T15:41:22.298Z,97986.34
2022-09-15T15:44:03.237Z,97992.97
2022-09-15T15:46:48.138Z,97992.66
2022-09-15T15:49:17.422Z,97989.34
2022-09-15T15:51:44.939Z,97981.69
2022-09-15T15:54:12.215Z,97989.63
2022-09-15T15:56:40.076Z,97995.59
2022-09-15T15:59:07.260Z,97992.31
2022-09-15T16:01:34.428Z,97994.91
2022-09-15T16:04:01.789Z,97992.38
2022-09-15T16:06:31.200Z,97996.78
2022-09-15T16:08:58.812Z,97994.63
2022-09-15T16:11:26.495Z,97991.31
2022-09-15T16:13:53.998Z,97993.91
2022-09-15T16:16:23.686Z,97991.59
2022-09-15T16:18:51.123Z,97995.16
2022-09-15T16:21:20.638Z,97996.00
2022-09-15T16:23:49.212Z,97995.25
2022-09-15T16:26:20.737Z,97990.19
2022-09-15T16:28:47.945Z,98004.00
2022-09-15T16:31:15.966Z,98005.59
2022-09-15T16:33:44.951Z,98006.78
2022-09-15T16:36:14.673Z,98004.63
2022-09-15T16:38:42.837Z,98024.00
2022-09-15T16:41:19.285Z,97994.25
2022-09-15T16:43:47.211Z,98018.88
2022-09-15T16:46:26.414Z,98014.72
2022-09-15T16:48:54.399Z,98015.50
2022-09-15T16:51:29.865Z,98011.16
2022-09-15T16:53:58.709Z,98013.31
2022-09-15T16:56:28.517Z,98009.56
2022-09-15T16:59:00.245Z,98019.84
2022-09-15T17:01:28.583Z,98011.97
2022-09-15T17:03:55.961Z,98019.09
2022-09-15T17:06:23.191Z,98017.53
2022-09-15T17:08:50.385Z,98013.19
2022-09-15T17:11:20.026Z,98018.34
2022-09-15T17:13:48.668Z,98012.44
2022-09-15T17:16:19.379Z,98014.03
2022-09-15T17:18:47.025Z,98019.94
2022-09-15T17:21:16.501Z,98021.16
2022-09-15T17:23:46.104Z,98019.56
2022-09-15T17:26:15.065Z,98007.75
2022-09-15T17:28:42.589Z,98015.63
2022-09-15T17:31:15.138Z,98014.84
2022-09-15T17:33:46.219Z,98016.81
2022-09-15T17:39:33.745Z,98017.00
2022-09-15T17:44:30.599Z,98014.06
2022-09-15T17:47:03.955Z,98015.41
2022-09-15T17:49:31.124Z,98014.22
2022-09-15T17:51:58.375Z,98016.78
2022-09-15T17:54:25.858Z,98012.63
2022-09-15T17:56:53.432Z,97995.50
2022-09-15T17:59:20.576Z,98006.56
2022-09-15T18:01:48.804Z,98002.78
2022-09-15T18:04:17.551Z,98010.88
2022-09-15T18:06:45.634Z,97998.47
2022-09-15T18:09:14.867Z,98001.59
2022-09-15T18:11:42.085Z,97999.63
2022-09-15T18:14:09.605Z,97997.44
2022-09-15T18:16:37.184Z,97998.44
2022-09-15T18:19:04.347Z,98005.72
2022-09-15T18:21:32.952Z,98000.00
2022-09-15T18:24:00.097Z,98001.56
2022-09-15T18:26:27.362Z,97997.81
2022-09-15T18:28:54.841Z,97999.81
2022-09-15T18:31:22.399Z,98004.50
2022-09-15T18:33:49.537Z,97995.44
2022-09-15T18:36:16.856Z,97992.69
2022-09-15T18:38:45.541Z,97993.47
2022-09-15T18:41:13.143Z,98000.53
2022-09-15T18:43:40.421Z,98001.91
2022-09-15T18:46:08.066Z,98003.69
2022-09-15T18:48:35.362Z,97993.66
2022-09-15T18:51:07.515Z,97994.22
2022-09-15T18:53:35.224Z,98001.75
2022-09-15T18:56:09.718Z,97989.31
2022-09-15T18:58:37.529Z,98000.16
2022-09-15T19:01:06.076Z,97996.38
2022-09-15T19:03:33.945Z,97993.81
2022-09-15T19:06:03.259Z,97997.75
2022-09-15T19:08:34.160Z,97993.19
2022-09-15T19:11:05.558Z,97998.91
2022-09-15T19:13:35.809Z,97991.41
2022-09-15T19:16:04.747Z,97946.81
2022-09-15T19:18:32.365Z,97996.91
2022-09-15T19:21:04.731Z,97994.13
2022-09-15T19:23:32.015Z,97996.13
2022-09-15T19:26:03.741Z,97988.22
2022-09-15T19:28:31.287Z,97987.84
2022-09-15T19:30:59.488Z,97987.03
2022-09-15T19:33:27.289Z,97987.41
2022-09-15T19:36:10.906Z,97988.00
2022-09-15T19:38:42.235Z,97985.63
2022-09-15T19:41:13.327Z,97990.97
2022-09-15T19:43:43.991Z,97990.53
2022-09-15T19:46:16.350Z,97991.72
2022-09-15T19:48:47.879Z,97986.75
2022-09-15T19:51:17.923Z,97979.84
2022-09-15T19:53:45.833Z,97982.81
2022-09-15T19:56:16.075Z,97982.97
2022-09-15T19:58:43.614Z,97997.13
2022-09-15T20:01:11.153Z,97987.31
2022-09-15T20:06:27.711Z,97989.66
2022-09-15T20:09:00.724Z,97994.34
2022-09-15T20:11:30.455Z,97988.09
2022-09-15T20:13:57.970Z,98000.31
2022-09-15T20:16:25.932Z,97996.75
2022-09-15T20:18:54.694Z,97972.69
2022-09-15T20:21:45.752Z,97987.94
2022-09-15T20:24:12.275Z,97992.28
2022-09-15T20:26:41.264Z,97998.78
2022-09-15T20:29:08.624Z,97987.56
2022-09-15T20:31:36.057Z,97985.84
2022-09-15T20:34:03.415Z,97991.66
2022-09-15T20:36:36.599Z,97991.47
2022-09-15T20:39:08.868Z,97984.38
2022-09-15T20:41:36.155Z,97977.72
2022-09-15T20:44:06.230Z,97982.22
2022-09-15T20:46:33.678Z,97986.34
2022-09-15T20:49:01.568Z,97977.66
2022-09-15T20:51:31.770Z,97968.38
2022-09-15T20:54:00.588Z,97975.25
2022-09-15T20:56:29.981Z,97966.38
2022-09-15T20:58:58.778Z,97961.44
2022-09-15T21:01:29.069Z,97975.06
2022-09-15T21:03:56.660Z,97971.31
2022-09-15T21:06:26.459Z,97980.38
2022-09-15T21:08:55.691Z,97974.47
2022-09-15T21:11:24.158Z,97981.97
2022-09-15T21:13:51.480Z,97979.59
2022-09-15T21:16:21.551Z,97965.78
2022-09-15T21:18:51.138Z,97971.69
2022-09-15T21:21:21.076Z,97974.06
2022-09-15T21:23:49.624Z,97968.72
2022-09-15T21:26:18.209Z,97972.88
2022-09-15T21:28:45.887Z,97967.38
2022-09-15T21:31:15.206Z,97969.28
2022-09-15T21:33:42.896Z,97963.78
2022-09-15T21:36:14.719Z,97958.25
2022-09-15T21:38:43.973Z,97967.31
2022-09-15T21:41:13.871Z,97962.19
2022-09-15T21:43:43.250Z,97958.69
2022-09-15T21:46:13.210Z,97958.69
2022-09-15T21:48:41.371Z,97963.78
2022-09-15T21:51:12.041Z,97967.53
2022-09-15T21:53:39.600Z,97962.59
2022-09-15T21:56:12.166Z,97953.56
2022-09-15T21:58:43.072Z,97958.84
2022-09-15T22:01:12.878Z,97954.94
2022-09-15T22:03:43.936Z,97946.47
2022-09-15T22:06:13.478Z,97930.66
2022-09-15T22:08:41.255Z,97949.97
2022-09-15T22:11:09.688Z,97948.38
2022-09-15T22:13:39.247Z,97954.28
2022-09-15T22:16:08.738Z,97948.78
2022-09-15T22:18:37.019Z,97945.81
2022-09-15T22:21:06.964Z,97943.63
2022-09-15T22:23:36.457Z,97944.78
2022-09-15T22:26:05.252Z,97932.97
2022-09-15T22:28:32.672Z,97939.69
2022-09-15T22:31:01.176Z,97946.75
2022-09-15T22:33:28.895Z,97948.50
2022-09-15T22:35:57.148Z,97939.06
2022-09-15T22:38:25.089Z,97940.25
2022-09-15T22:40:54.068Z,97936.50
2022-09-15T22:43:21.464Z,97934.72
2022-09-15T22:45:48.734Z,97933.88
2022-09-15T22:48:16.020Z,97934.84
2022-09-15T22:50:45.347Z,97932.69
2022-09-15T22:53:13.196Z,97937.19
2022-09-15T22:55:40.674Z,97940.31
2022-09-15T22:58:09.523Z,97939.09
2022-09-15T23:00:38.119Z,97941.84
2022-09-15T23:03:05.651Z,97939.69
2022-09-15T23:05:32.862Z,97937.31
2022-09-15T23:08:00.345Z,97944.56
2022-09-15T23:10:28.307Z,97939.81
2022-09-15T23:12:56.057Z,97940.19
2022-09-15T23:15:24.646Z,97947.25
2022-09-15T23:17:51.985Z,97935.47
2022-09-15T23:20:19.299Z,97935.81
2022-09-15T23:22:46.563Z,97933.25
2022-09-15T23:25:13.822Z,97931.50
2022-09-15T23:27:41.171Z,97935.81
2022-09-15T23:30:09.742Z,97927.56
2022-09-15T23:32:38.453Z,97928.16
2022-09-15T23:35:06.616Z,97930.72
2022-09-15T23:37:33.906Z,97922.63
2022-09-15T23:40:01.482Z,97929.91
2022-09-15T23:42:30.095Z,97920.41
2022-09-15T23:44:57.301Z,97918.84
2022-09-15T23:47:24.756Z,97908.53
2022-09-15T23:49:53.443Z,97916.66
2022-09-15T23:52:20.866Z,97916.03
2022-09-15T23:54:48.108Z,97918.59
2022-09-15T23:57:15.303Z,97913.31
2022-09-15T23:59:42.424Z,97906.25
